Biddulph, United Kingdom
Current Conditions -  °F | °C
As of 12:50 AM on Saturday 20 Dec 2014 (Local Time) from EGCC Reporting Station
Broken Clouds Broken Clouds  
Wind Chill:   Ceiling: 2800
Heat Index:   Visibility: 6mi
Dew Point:   Wind: 15mph
Humidity: 81%   Direction: 250°WSW
Pressure: 30.09"   Gusts: NA
Location:  53.12°N, 2.18°W
Report Text: EGCC 200050Z AUTO 25013KT 9999 BKN028/// //////TCU 06/03 Q1019
Loading
Personal Weather Stations






























Interactive Weather Map New forecast layout! Learn more

10-Day Weather Forecast

Advertisements
Track Severe Weather on mobile